Current Month

Pierce College

Hourly Data | America/Los_Angeles
as of 8/8/22 3:37 PM PDT
Date & Time Temp Max (°F) Temp Min (°F) RH (%) Dew Pt (°F) Latest Rain (In) Soil Temp (°F) Soil Moist (%) Wind Spd (mph) Wind Dir (°) Wind Gust (mph) Leaf Wet Raw (mV) Net Radiation (W/m²) Evap Pan Max Wind (mph) Evap Pan H2O Max Temp (°F) Evap Pan Level (In)
8/8/22 - 1500 99.7 97.2 23 55.2 0.00 86.4 27.1 2.5 ENE | 58 5.5 263 519 3.3 130.7 3.8
8/8/22 - 1400 98.7 94.9 27 57.2 0.00 86.3 27.1 2.5 ENE | 71 6.1 262 571 4.2 136.9 3.8
8/8/22 - 1300 97.2 93.3 26 55.4 0.00 86.1 27.0 2.3 NE | 40 5.4 262 576 2.8 138.3 3.8
8/8/22 - 1200 93.8 90.8 29 55.9 0.00 85.8 27.0 2.2 NNE | 32 6.3 262 539 2.7 133.7 3.8
8/8/22 - 1100 91.3 85.9 30 53.7 0.00 86.3 27.0 1.6 NE | 43 3.9 262 466 2.3 134.2 3.8
8/8/22 - 1000 86.9 79.4 38 55.4 0.00 86.3 27.1 0.7 NNE | 16 3.7 263 354 2.8 126.3 3.8
8/8/22 - 0900 79.4 74.4 49 55.8 0.00 86.7 27.2 0.7 NNE | 27 2.8 264 123 2.6 105.0 3.8
8/8/22 - 0800 74.5 68.7 56 55.3 0.00 86.9 27.2 0.1 SE | 130 1.6 266 -12 1.5 71.6 3.8
8/8/22 - 0700 68.7 66.0 64 54.4 0.00 87.0 27.3 0.2 S | 186 1.2 267 -38 0.0 64.0 3.8
8/8/22 - 0600 67.9 66.6 63 54.1 0.00 87.2 27.3 0.1 SSE | 156 0.9 268 -49 0.0 63.6 3.8
8/8/22 - 0500 69.0 67.7 60 53.6 0.00 88.0 27.3 0.4 SSE | 155 1.8 267 -51 0.0 64.6 3.8
8/8/22 - 0400 70.0 68.7 57 53.5 0.00 87.5 27.4 0.2 SSE | 162 2.0 267 -51 0.0 64.4 3.8
8/8/22 - 0300 71.7 69.6 54 53.3 0.00 87.4 27.4 0.2 S | 175 1.0 266 -52 0.0 67.2 3.8
8/8/22 - 0200 73.5 71.5 50 53.1 0.00 87.9 27.4 0.1 S | 179 1.3 266 -52 0.2 67.0 3.8
8/8/22 - 0100 76.0 73.2 46 52.6 0.00 87.9 27.4 0.3 SE | 130 1.8 266 -57 0.0 70.1 3.8
8/8/22 - 0000 76.7 74.8 44 52.5 0.00 84.5 27.4 0.1 SSE | 155 1.9 266 -56 0.0 70.1 3.8
8/7/22 - 2300 79.7 76.7 40 51.3 0.00 87.3 27.4 0.2 SSE | 166 1.4 264 -59 0.0 74.4 3.8
8/7/22 - 2200 81.8 79.4 37 52.0 0.00 84.2 27.4 0.8 ESE | 104 3.7 264 -70 1.6 77.7 3.8
8/7/22 - 2100 86.9 81.7 30 49.3 0.00 83.6 27.4 0.9 E | 90 4.3 264 -77 2.0 84.0 3.8
8/7/22 - 2000 94.9 86.7 20 44.3 0.00 83.9 27.3 0.7 NE | 39 3.8 262 -64 3.3 95.9 3.8
8/7/22 - 1900 100.1 94.6 14 40.8 0.00 86.3 27.3 4.3 WSW | 246 9.2 261 44 6.1 103.9 3.8
8/7/22 - 1800 103.0 99.9 13 41.3 0.00 83.8 27.2 1.9 WNW | 297 7.6 261 186 6.4 109.5 3.8
8/7/22 - 1700 103.6 101.1 11 37.0 0.00 87.3 27.2 3.9 SSW | 206 10.3 261 320 7.4 120.4 3.8
8/7/22 - 1600 104.8 103.1 10 36.0 0.00 86.3 27.1 4.1 SSE | 166 10.4 261 439 6.0 127.4 3.8
8/7/22 - 1500 104.9 102.2 10 37.2 0.00 85.6 27.0 3.3 SSE | 153 8.9 260 525 5.2 140.4 3.8
8/7/22 - 1400 105.2 102.1 13 43.8 0.00 85.5 27.0 1.2 NNE | 24 4.9 261 566 2.1 148.2 3.8
8/7/22 - 1300 103.4 97.0 16 46.5 0.00 85.4 26.9 1.3 NE | 48 4.7 261 578 3.6 150.3 3.8
8/7/22 - 1200 99.0 92.8 20 48.2 0.00 85.3 26.9 1.6 NE | 37 5.3 261 543 3.1 141.3 3.8
8/7/22 - 1100 92.8 87.4 27 51.5 0.00 85.2 27.0 2.2 NE | 54 5.4 262 471 4.4 134.4 3.8
8/7/22 - 1000 88.5 79.2 30 49.1 0.00 85.7 27.0 0.9 NE | 39 3.1 262 364 2.1 127.4 3.8
8/7/22 - 0900 79.3 70.6 47 52.3 0.00 86.0 27.1 0.4 NE | 34 2.0 264 118 0.9 103.9 3.8
8/7/22 - 0800 70.7 62.4 60 52.1 0.00 86.2 27.2 0.1 NE | 37 1.4 267 -24 0.9 66.6 3.8
8/7/22 - 0700 62.3 60.3 68 50.7 0.00 86.4 27.3 0.2 S | 171 1.4 269 -45 0.0 57.5 3.8
8/7/22 - 0600 62.7 61.0 67 50.6 0.00 86.5 27.3 0.2 S | 186 1.4 269 -53 0.0 55.3 3.8
8/7/22 - 0500 62.7 61.2 65 50.1 0.00 86.9 27.3 0.2 SSE | 162 1.1 268 -54 0.0 56.3 3.8
8/7/22 - 0400 63.5 62.1 64 50.3 0.00 87.0 27.4 0.2 SSE | 158 1.3 268 -58 0.0 55.8 3.8
8/7/22 - 0300 64.7 63.0 60 49.9 0.00 87.4 27.4 0.3 S | 173 2.6 268 -60 0.0 56.3 3.8
8/7/22 - 0200 66.3 64.1 58 50.0 0.00 87.4 27.4 0.3 SSE | 159 1.4 267 -63 0.0 58.1 3.8
8/7/22 - 0100 68.2 66.1 53 49.5 0.00 87.5 27.4 0.6 S | 188 1.9 267 -66 0.9 60.8 3.8
8/7/22 - 0000 70.2 67.7 51 49.8 0.00 87.7 27.4 0.2 SSE | 155 1.5 266 -68 0.6 63.4 3.8
8/6/22 - 2300 74.2 69.7 47 51.1 0.00 87.2 27.4 0.5 S | 180 3.4 266 -77 1.7 69.7 3.8
8/6/22 - 2200 76.8 74.0 44 52.1 0.00 86.0 27.4 2.9 SSW | 213 6.3 266 -84 3.1 72.8 3.8
8/6/22 - 2100 81.0 76.7 38 51.2 0.00 85.0 27.4 3.4 SW | 228 7.8 264 -90 4.2 77.7 3.8
8/6/22 - 2000 85.8 80.9 26 44.7 0.00 84.1 27.4 4.3 SW | 225 8.9 264 -76 6.4 89.1 3.8
8/6/22 - 1900 94.4 85.6 19 42.0 0.00 86.9 27.4 4.4 WSW | 246 11.6 262 41 7.1 98.4 3.8
8/6/22 - 1800 97.9 94.2 17 44.3 0.00 87.0 27.4 2.6 WNW | 289 9.1 262 188 6.8 107.3 3.8
8/6/22 - 1700 98.7 95.8 13 38.9 0.00 86.5 27.2 5.4 WSW | 251 12.0 261 333 7.7 113.8 3.8
8/6/22 - 1600 100.0 97.4 13 38.9 0.00 86.0 27.2 7.3 WSW | 241 15.1 262 457 9.6 125.1 3.8
8/6/22 - 1500 101.4 99.2 11 36.9 0.00 86.4 27.1 6.4 WSW | 241 12.5 261 538 9.2 140.1 3.8
8/6/22 - 1400 101.5 97.1 18 48.5 0.00 85.6 27.1 3.1 SW | 230 13.6 261 581 8.4 155.4 3.8
8/6/22 - 1300 99.2 93.3 27 55.7 0.00 85.3 27.1 1.6 NE | 53 5.6 263 589 3.9 152.2 3.8
8/6/22 - 1200 94.1 89.3 32 57.5 0.00 85.4 27.1 1.2 N | 9 4.1 263 553 2.9 143.3 3.8
8/6/22 - 1100 89.5 82.7 39 57.7 0.00 85.6 27.0 1.1 N | 352 4.6 263 480 3.6 139.6 3.8
8/6/22 - 1000 82.8 76.6 45 56.9 0.00 85.7 27.1 1.0 NNE | 14 4.3 264 369 2.4 126.7 3.8
8/6/22 - 0900 76.6 71.8 55 56.2 0.00 85.6 27.2 0.9 NE | 47 3.2 265 93 1.7 105.0 3.8
8/6/22 - 0800 71.9 65.0 65 56.2 0.00 86.1 27.3 0.3 NE | 45 2.5 268 -22 1.5 70.2 3.8
8/6/22 - 0700 65.2 62.7 73 54.8 0.00 86.6 27.4 0.3 SSE | 152 1.3 270 -41 0.0 59.5 3.8
8/6/22 - 0600 66.8 63.8 67 54.6 0.00 86.6 27.4 0.9 SSW | 202 3.8 270 -55 2.1 61.2 3.8
8/6/22 - 0500 65.5 63.4 73 55.2 0.00 86.3 27.4 0.8 S | 188 2.3 270 -52 1.1 59.8 3.8
8/6/22 - 0400 66.0 64.3 70 55.3 0.00 84.5 27.4 0.2 S | 184 1.4 270 -53 0.0 60.7 3.8
8/6/22 - 0300 67.5 66.0 64 54.1 0.00 84.2 27.4 0.4 S | 180 2.5 268 -54 1.0 63.8 3.8
8/6/22 - 0200 71.3 66.9 56 53.0 0.00 86.8 27.4 0.6 WSW | 247 4.7 268 -57 2.7 68.4 3.8
8/6/22 - 0100 72.5 69.2 55 54.1 0.00 89.1 27.4 0.5 WSW | 248 3.7 267 -60 3.4 69.0 3.8
8/6/22 - 0000 72.6 71.7 55 55.2 0.00 87.4 27.5 1.6 W | 277 6.5 267 -65 3.7 70.6 3.8
8/5/22 - 2300 72.4 71.7 53 54.2 0.00 86.5 27.5 2.0 SW | 232 6.1 267 -66 4.1 72.3 3.8
8/5/22 - 2200 74.3 71.8 52 54.5 0.00 91.6 27.5 4.3 SW | 216 11.1 266 -69 6.2 75.6 3.8
8/5/22 - 2100 78.8 74.1 51 56.6 0.00 91.1 27.5 4.8 SW | 236 9.8 266 -73 5.8 79.6 3.8
8/5/22 - 2000 84.3 78.6 46 58.8 0.00 90.2 27.5 2.6 W | 275 8.8 266 -62 6.0 87.4 3.8
8/5/22 - 1900 89.1 84.3 38 58.2 0.00 89.4 27.4 1.5 NW | 314 5.1 265 54 5.5 93.6 3.8
8/5/22 - 1800 93.5 88.8 33 57.9 0.00 88.7 27.4 2.0 NW | 308 8.9 264 200 6.1 103.0 3.8
8/5/22 - 1700 95.0 91.9 29 56.4 0.00 88.5 27.3 3.4 WSW | 253 10.7 263 342 7.5 113.3 3.8
8/5/22 - 1600 94.5 92.0 29 56.4 0.00 87.9 27.2 4.9 S | 188 11.6 263 478 6.1 122.3 3.8
8/5/22 - 1500 98.7 93.1 26 56.1 0.00 87.7 27.2 1.8 W | 278 8.8 263 540 6.9 129.0 3.8
8/5/22 - 1400 95.1 91.4 29 56.2 0.00 85.8 27.1 2.1 E | 101 6.7 263 594 4.8 146.3 3.8
8/5/22 - 1300 93.5 87.5 31 55.9 0.00 87.5 27.1 1.6 NNE | 20 4.6 263 579 4.0 147.2 3.8
8/5/22 - 1200 89.8 81.8 37 56.5 0.00 87.3 27.1 1.3 NNE | 30 5.9 264 232 4.3 140.7 3.8
8/5/22 - 1100 83.0 77.1 45 56.8 0.00 83.1 27.2 1.0 NNE | 31 3.9 264 215 3.0 117.3 3.8
8/5/22 - 1000 78.4 75.0 51 57.0 0.00 86.0 27.2 1.2 NE | 49 3.6 266 106 2.3 98.4 3.8
8/5/22 - 0900 75.1 72.3 58 58.0 0.00 86.2 27.3 1.1 ENE | 66 3.1 267 -51 1.6 83.9 3.8
8/5/22 - 0800 72.5 70.1 62 57.5 0.00 86.3 27.3 0.6 SE | 125 2.5 268 -83 1.6 76.7 3.8
8/5/22 - 0700 70.3 68.2 65 56.8 0.00 86.4 27.4 0.5 SE | 138 2.5 268 -96 0.9 70.8 3.8
8/5/22 - 0600 69.3 68.3 63 55.7 0.00 86.5 27.4 0.1 S | 173 0.9 268 -110 0.0 67.1 3.8
8/5/22 - 0500 70.8 69.1 61 55.8 0.00 86.7 27.4 0.0 ESE | 121 0.7 268 -114 0.0 69.6 3.8
8/5/22 - 0400 71.6 70.7 60 56.4 0.00 85.1 27.4 0.3 E | 101 2.1 268 -108 0.6 70.8 3.8
8/5/22 - 0300 72.3 71.3 60 57.4 0.00 84.6 27.4 0.4 NE | 37 1.9 268 -106 0.6 71.6 3.8
8/5/22 - 0200 73.4 72.1 61 58.4 0.00 85.1 27.4 0.6 NE | 48 2.8 268 -82 0.9 73.0 3.8
8/5/22 - 0100 73.9 73.0 59 58.3 0.00 84.7 27.4 0.3 E | 80 2.0 268 -78 1.3 73.0 3.8
8/5/22 - 0000 74.4 73.6 59 58.6 0.00 85.2 27.4 0.3 ENE | 73 2.7 267 -82 1.2 74.2 3.8
8/4/22 - 2300 76.0 74.2 55 58.1 0.00 85.0 27.4 0.6 ENE | 78 2.6 267 -83 1.6 76.6 3.8
8/4/22 - 2200 76.6 75.7 50 56.3 0.00 87.1 27.4 1.3 SSW | 210 4.4 266 -65 2.7 77.3 3.8
8/4/22 - 2100 78.6 76.4 48 56.4 0.00 87.7 27.4 3.1 SW | 231 6.6 266 -71 4.4 80.9 3.8
8/4/22 - 2000 82.8 78.4 43 56.2 0.00 88.5 27.4 4.0 SW | 235 7.8 266 -107 5.3 86.4 3.8
8/4/22 - 1900 85.8 82.8 38 56.0 0.00 87.0 27.4 2.4 W | 276 8.5 265 -63 5.7 92.2 3.8
8/4/22 - 1800 88.8 85.5 32 54.3 0.00 86.9 27.4 1.3 N | 354 5.9 264 -239 4.1 100.6 3.8
8/4/22 - 1700 88.9 87.4 31 53.4 0.00 86.5 27.4 1.9 SSW | 205 6.4 263 -206 4.2 103.1 3.8
8/4/22 - 1600 88.7 87.2 29 51.7 0.00 86.5 27.4 2.8 SE | 129 7.0 263 -130 3.9 105.2 3.8
8/4/22 - 1500 90.6 87.8 28 52.3 0.00 86.3 27.3 3.3 E | 94 7.8 263 53 5.2 118.8 3.8
8/4/22 - 1400 91.0 87.4 31 54.4 0.00 86.2 27.2 2.8 E | 87 6.9 263 88 4.8 128.6 3.8
8/4/22 - 1300 90.1 87.4 33 56.1 0.00 85.7 27.2 2.3 ENE | 61 7.1 263 171 4.5 137.9 3.8
8/4/22 - 1200 87.8 84.0 36 56.3 0.00 86.0 27.1 1.7 NE | 49 6.4 263 163 4.8 131.1 3.8
8/4/22 - 1100 84.9 80.3 42 57.3 0.00 85.8 27.2 1.7 NNE | 33 5.5 263 88 3.6 126.5 3.8
8/4/22 - 1000 80.7 75.5 48 57.0 0.00 86.2 27.2 1.4 NE | 36 4.9 264 -21 3.3 120.1 3.8
8/4/22 - 0900 76.2 71.6 59 58.1 0.00 86.5 27.3 1.1 ENE | 63 3.8 266 -337 2.3 101.6 3.8
8/4/22 - 0800 72.0 69.0 69 59.7 0.00 86.5 27.4 0.8 NE | 46 3.5 268 -417 2.0 76.0 3.8
8/4/22 - 0700 69.3 67.2 74 59.3 0.00 86.7 27.4 0.4 ENE | 74 2.2 270 -449 1.2 69.4 3.8
8/4/22 - 0600 67.7 66.6 75 58.9 0.00 86.7 27.4 0.2 ESE | 115 1.8 270 -445 1.1 65.4 3.8
8/4/22 - 0500 69.4 67.2 73 58.9 0.00 87.1 27.4 0.0 S | 186 0.8 269 -461 0.0 66.9 3.8
8/4/22 - 0400 70.2 69.2 68 58.8 0.00 87.1 27.4 0.3 E | 100 2.3 269 -456 0.6 68.4 3.8
8/4/22 - 0300 70.6 69.8 66 58.2 0.00 87.2 27.5 0.2 E | 94 2.2 268 -449 0.7 69.8 3.8
8/4/22 - 0200 71.3 70.1 64 57.8 0.00 87.5 27.5 0.3 E | 90 2.9 268 -443 1.6 69.2 3.8
8/4/22 - 0100 71.6 70.6 61 57.2 0.00 87.7 27.5 0.1 ESE | 117 2.5 268 -448 0.0 68.0 3.8
8/4/22 - 0000 73.0 71.3 55 55.3 0.00 87.6 27.5 0.1 ESE | 115 1.4 267 -454 0.0 70.2 3.8
8/3/22 - 2300 74.5 72.6 48 52.2 0.00 87.6 27.5 0.0 E | 88 1.1 266 -468 0.8 72.6 3.8
8/3/22 - 2200 76.8 74.3 39 48.8 0.00 87.5 27.5 0.3 ENE | 63 2.4 265 -463 1.3 76.4 3.8
8/3/22 - 2100 81.2 76.7 37 50.6 0.00 87.6 27.5 0.9 ENE | 58 3.0 265 -466 1.7 79.9 3.8
8/3/22 - 2000 86.7 81.1 34 53.0 0.00 87.4 27.5 0.9 ESE | 105 5.3 264 -455 2.0 90.7 3.8
8/3/22 - 1900 89.8 86.6 31 54.0 0.00 88.9 27.4 3.2 S | 171 7.6 264 -342 5.0 98.7 3.8
8/3/22 - 1800 93.8 89.7 28 54.0 0.00 89.5 27.4 3.3 S | 183 7.7 263 -234 4.6 107.1 3.8
8/3/22 - 1700 94.7 91.5 27 54.3 0.00 88.9 27.4 2.5 E | 98 6.9 263 -93 4.2 107.9 3.8
8/3/22 - 1600 96.0 90.9 27 54.8 0.00 88.8 27.3 3.3 E | 92 9.1 263 57 5.7 121.2 3.8
8/3/22 - 1500 95.7 93.1 27 55.1 0.00 88.0 27.3 2.4 NE | 53 6.3 263 165 3.0 132.0 3.8
8/3/22 - 1400 93.7 89.6 29 54.9 0.00 87.7 27.2 2.1 ENE | 63 8.2 263 263 5.2 145.6 3.8
8/3/22 - 1300 90.9 86.7 32 55.4 0.00 87.9 27.2 2.1 NE | 53 5.0 263 247 3.2 143.9 3.8
8/3/22 - 1200 88.1 84.5 36 56.2 0.00 85.7 27.2 2.0 ENE | 68 6.5 263 218 5.6 132.4 3.8
8/3/22 - 1100 84.6 78.5 43 57.2 0.00 85.6 27.2 1.8 NE | 40 5.1 264 122 3.1 127.8 3.8
8/3/22 - 1000 78.8 75.7 48 56.6 0.00 86.1 27.2 1.7 NE | 47 4.6 264 -57 3.8 114.1 3.8
8/3/22 - 0900 75.8 71.2 56 56.5 0.00 86.1 27.4 1.2 NE | 50 3.7 266 -343 2.0 101.7 3.8
8/3/22 - 0800 71.4 67.2 64 56.9 0.00 86.4 27.4 0.5 ENE | 78 2.5 267 -393 1.7 72.3 3.8
8/3/22 - 0700 67.4 66.2 70 56.4 0.00 86.4 27.4 0.2 ESE | 121 1.6 269 -428 0.0 64.9 3.8
8/3/22 - 0600 67.3 66.2 69 56.0 0.00 87.1 27.4 0.1 SE | 126 1.2 269 -443 0.0 65.9 3.8
8/3/22 - 0500 68.4 67.2 66 56.3 0.00 86.9 27.4 0.1 E | 86 1.4 269 -429 0.6 67.5 3.8
8/3/22 - 0400 68.0 67.4 68 56.6 0.00 87.0 27.5 0.3 SE | 131 1.6 268 -435 0.7 67.2 3.8
8/3/22 - 0300 68.0 67.3 68 56.8 0.00 87.3 27.5 0.4 E | 94 2.7 269 -425 1.3 66.2 3.8
8/3/22 - 0200 68.9 67.4 67 56.7 0.00 87.4 27.5 0.2 E | 97 2.3 268 -421 1.1 68.7 3.8
8/3/22 - 0100 70.7 68.6 65 57.3 0.00 87.5 27.5 0.7 E | 79 2.2 268 -435 1.4 70.2 3.8
8/3/22 - 0000 73.3 70.6 61 57.5 0.00 87.5 27.5 0.8 NE | 51 4.0 268 -432 1.7 70.9 3.8
8/2/22 - 2300 75.1 73.1 48 53.3 0.00 87.7 27.5 0.7 SSE | 156 3.6 266 -479 2.0 71.7 3.8
8/2/22 - 2200 77.4 74.9 42 51.8 0.00 87.5 27.5 2.0 WSW | 239 5.7 266 -475 4.3 76.0 3.8
8/2/22 - 2100 81.4 77.2 38 51.4 0.00 87.4 27.5 1.6 WNW | 290 6.1 265 -479 4.7 80.2 3.8
8/2/22 - 2000 88.3 81.2 30 49.3 0.00 87.2 27.5 1.8 WNW | 289 5.3 264 -461 4.1 91.5 3.8
8/2/22 - 1900 91.8 88.2 20 43.8 0.00 87.1 27.5 2.6 W | 272 7.8 263 -354 6.6 97.4 3.8
8/2/22 - 1800 93.5 90.7 18 42.2 0.00 86.5 27.4 5.4 WSW | 245 10.6 262 -193 7.0 106.2 3.8
8/2/22 - 1700 96.3 92.3 21 48.1 0.00 86.8 27.3 4.1 W | 262 13.8 263 -41 7.9 112.9 3.8
8/2/22 - 1600 95.5 93.7 22 49.7 0.00 85.7 27.3 6.0 WSW | 249 12.1 263 134 8.0 120.4 3.8
8/2/22 - 1500 97.0 94.7 25 53.6 0.00 85.5 27.2 3.9 SSW | 210 11.8 263 356 6.7 134.6 3.8
8/2/22 - 1400 99.1 94.9 27 57.1 0.00 85.6 27.1 1.8 NNE | 17 8.5 263 243 10.0 150.8 3.8
8/2/22 - 1300 96.4 91.7 27 54.5 0.00 87.9 27.1 1.6 N | 352 6.1 262 181 4.8 152.8 3.8
8/2/22 - 1200 93.8 87.3 30 54.1 0.00 87.9 27.1 1.6 NNE | 29 6.6 262 182 5.2 140.2 3.8
8/2/22 - 1100 87.8 83.1 35 54.4 0.00 88.3 27.1 1.1 NNE | 30 4.2 263 91 3.5 139.2 3.8
8/2/22 - 1000 83.0 77.3 42 54.9 0.00 85.5 27.1 0.9 NE | 36 3.6 263 -11 2.8 122.8 3.8
8/2/22 - 0900 77.2 72.2 55 56.6 0.00 85.6 27.3 0.8 NE | 45 3.3 265 -332 1.9 101.2 3.8
8/2/22 - 0800 72.3 67.1 66 58.0 0.00 86.0 27.4 0.3 NE | 49 3.1 268 -371 1.3 71.8 3.8
8/2/22 - 0700 67.1 64.8 77 58.3 0.00 86.1 27.4 0.2 SSE | 162 1.3 270 -432 0.0 63.7 3.8
8/2/22 - 0600 65.2 64.6 78 58.0 0.00 86.5 27.4 0.4 S | 171 1.6 270 -450 0.9 62.0 3.8
8/2/22 - 0500 65.4 64.8 79 58.4 0.00 86.5 27.4 0.6 S | 186 2.1 271 -436 1.1 62.9 3.8
8/2/22 - 0400 66.3 65.2 77 58.4 0.00 86.6 27.4 0.2 SSE | 157 1.2 270 -426 0.6 63.3 3.8
8/2/22 - 0300 68.0 65.8 73 58.1 0.00 86.9 27.4 0.2 SE | 140 1.4 270 -482 0.0 66.6 3.8
8/2/22 - 0200 68.5 67.7 71 58.5 0.00 86.8 27.4 0.4 ENE | 68 2.7 269 -495 1.0 68.1 3.8
8/2/22 - 0100 70.0 68.3 69 58.8 0.00 87.1 27.5 0.7 E | 84 3.7 269 -492 1.9 69.4 3.8
8/2/22 - 0000 73.4 70.0 64 58.8 0.00 87.2 27.5 0.9 ENE | 66 3.4 268 - 1.7 71.0 3.8
8/1/22 - 2300 75.9 73.3 55 56.9 0.00 87.0 27.5 0.9 NE | 52 4.3 266 - 1.4 73.3 3.8
8/1/22 - 2200 78.4 75.7 45 53.9 0.00 87.2 27.5 0.5 E | 99 4.0 266 - 2.2 74.6 3.8
8/1/22 - 2100 82.6 77.8 36 50.8 0.00 86.8 27.5 0.5 SSE | 154 3.8 264 - 2.3 81.1 3.8
8/1/22 - 2000 86.2 82.5 29 48.3 0.00 86.6 27.4 1.9 WNW | 287 6.5 264 - 5.2 86.1 3.8
8/1/22 - 1900 90.4 86.1 26 49.0 0.00 86.4 27.4 0.9 NW | 314 5.4 263 -485 4.6 95.7 3.8
8/1/22 - 1800 98.1 90.5 24 52.2 0.00 86.3 27.4 1.4 NW | 306 6.2 263 -326 6.0 107.1 3.8
8/1/22 - 1700 99.3 96.5 25 56.0 0.00 85.7 27.3 1.9 WNW | 301 9.7 263 -117 6.0 120.8 3.8
8/1/22 - 1600 97.7 94.5 25 54.6 0.00 85.5 27.2 3.8 S | 191 8.4 263 39 5.9 122.2 3.8
8/1/22 - 1500 100.6 94.6 24 54.4 0.00 85.3 27.1 4.4 SW | 224 10.8 263 152 7.2 134.3 3.8
8/1/22 - 1400 100.3 96.1 24 54.8 0.00 85.0 27.1 1.6 NE | 42 5.6 262 220 4.8 144.3 3.8
8/1/22 - 1300 97.0 90.9 25 53.2 0.00 84.6 27.1 1.8 NE | 39 6.8 262 104 3.7 147.6 3.8
8/1/22 - 1200 93.9 89.0 24 50.1 0.00 84.8 27.1 1.8 NNE | 30 5.6 262 127 3.6 139.5 3.8
8/1/22 - 1100 89.8 83.4 28 49.8 0.00 84.8 27.1 1.3 NNE | 30 5.3 262 29 3.2 134.9 3.8
8/1/22 - 1000 83.6 76.3 34 49.7 0.00 84.5 27.1 1.0 ENE | 61 3.5 263 -101 2.9 123.5 3.8
8/1/22 - 0900 76.5 74.4 40 49.5 0.00 84.9 27.3 0.5 N | 351 2.3 265 -424 1.4 87.8 3.8
8/1/22 - 0800 74.4 70.1 43 49.1 0.00 85.2 27.3 0.2 NNE | 24 2.2 266 -468 0.6 78.6 3.8
8/1/22 - 0700 70.0 67.1 50 48.6 0.00 85.4 27.3 0.2 S | 169 1.8 266 -476 1.1 68.3 3.8
8/1/22 - 0600 68.8 67.2 50 48.5 0.00 85.8 27.4 0.3 SSE | 163 1.4 266 - 0.8 65.6 3.8
8/1/22 - 0500 69.4 68.1 47 47.8 0.00 85.7 27.4 0.4 SSW | 197 2.1 266 - 0.0 66.8 3.8
8/1/22 - 0400 70.0 68.8 46 47.4 0.00 85.8 27.4 0.4 S | 177 2.1 266 -428 0.8 66.8 3.8
8/1/22 - 0300 72.3 69.7 43 47.4 0.00 86.0 27.4 0.2 SSE | 158 1.8 266 -438 1.0 68.6 3.8
8/1/22 - 0200 74.6 72.2 38 46.8 0.00 86.3 27.4 0.4 ESE | 104 2.7 266 -438 0.7 73.3 3.8
8/1/22 - 0100 75.6 74.2 39 48.5 0.00 86.3 27.4 0.5 NE | 52 2.9 265 -426 0.9 73.6 3.8
8/1/22 - 0000 78.6 75.4 40 49.9 0.00 86.3 27.4 0.4 ENE | 61 2.8 266 -426 0.3 77.3 3.8
Max 105.2 103.1 79 59.7 0.00 91.6 27.5 7.3 - 15.1 271 594 10.0 155.4 3.8
Avg 81.6 78.2 44 53.2 0.00 86.6 27.3 1.4 - 4.8 265 -44 2.9 94.7 3.8
Min 62.3 60.3 10 36.0 0.00 83.1 26.9 0.0 - 0.7 260 -495 0.0 55.3 3.8
Total - - - - 0.00 - - - - - - - - - -